| time (UTC) | temp C | wind direction | speed KPH | gust KPH | rain 1hr cm | rain 24hr cm | rain mn cm | humidity % | barometer mb |
| 20260507105542 | 16 | 340 | 4.8 | 11.3 | 10.41 | 25.37 | 13.69 | 50 | |
| 20260507104534 | 16 | 88 | 3.2 | 9.7 | 10.24 | 25.37 | 13.51 | 51 | |
| 20260507103526 | 15 | 360 | 6.4 | 12.9 | 10.31 | 2.54 | 13.34 | 56 | |
| 20260507102534 | 15 | 298 | 1.6 | 4.8 | 10.39 | 2.54 | 13.16 | 56 | |
| 20260507101525 | 16 | 10 | 4.8 | 12.9 | 10.31 | 2.54 | 12.98 | 55 | |
| 20260507100522 | 16 | 56 | 3.2 | 6.4 | 10.31 | 2.54 | 12.83 | 56 | |
| 20260507095528 | 16 | 38 | 4.8 | 11.3 | 10.34 | 2.54 | 12.65 | 58 | |
| 20260507094534 | 15 | 352 | 6.4 | 12.9 | 10.41 | 2.54 | 12.47 | 60 | |
| 20260507093525 | 15 | 8 | 8.0 | 14.5 | 10.46 | 2.54 | 12.29 | 60 | |
| 20260507092539 | 16 | 19 | 4.8 | 11.3 | 10.41 | 2.54 | 12.12 | 59 | |
| 20260507091525 | 15 | 358 | 3.2 | 8.0 | 10.52 | 2.54 | 11.96 | 61 | |
| 20260507090534 | 13 | 9 | 3.2 | 8.0 | 10.57 | 2.54 | 11.79 | 66 | |
| 20260507085525 | 13 | 12 | 4.8 | 11.3 | 10.57 | 2.54 | 11.61 | 68 | |
| 20260507084533 | 13 | 0 | 3.2 | 8.0 | 10.52 | 2.54 | 11.43 | 69 | |
| 20260507083525 | 13 | 271 | 3.2 | 4.8 | 10.44 | 2.54 | 11.25 | 72 | |
| 20260507082534 | 12 | 17 | 4.8 | 11.3 | 10.57 | 2.54 | 11.07 | 73 | |
| 20260507081547 | 13 | 17 | 3.2 | 9.7 | 10.54 | 2.54 | 10.90 | 72 | |
| 20260507080533 | 12 | 10 | 4.8 | 8.0 | 10.44 | 2.54 | 10.72 | 72 | |
| 20260507075529 | 12 | 79 | 1.6 | 6.4 | 10.41 | 2.54 | 10.54 | 75 | |
| 20260507074533 | 11 | 43 | 1.6 | 6.4 | 10.57 | 2.54 | 10.39 | 78 | |
| 20260507073525 | 10 | 15 | 4.8 | 9.7 | 10.64 | 2.54 | 10.21 | 79 | |
| 20260507072547 | 10 | 25 | 4.8 | 8.0 | 10.54 | 2.54 | 10.03 | 81 | |
| 20260507071525 | 10 | 353 | 4.8 | 9.7 | 10.62 | 2.54 | 9.86 | 82 | |
| 20260507070535 | 10 | 344 | 4.8 | 8.0 | 10.67 | 2.54 | 9.68 | 83 | |
| 20260507065545 | 9 | 334 | 4.8 | 11.3 | 10.62 | 2.54 | 9.50 | 84 | |
| 20260507064534 | 9 | 350 | 4.8 | 8.0 | 10.52 | 2.54 | 9.32 | 85 | |
| 20260507063525 | 9 | 327 | 4.8 | 9.7 | 10.41 | 2.54 | 9.14 | 86 | |
| 20260507062523 | 9 | 353 | 4.8 | 8.0 | 10.46 | 2.54 | 8.97 | 86 | |
| 20260507061545 | 9 | 6 | 3.2 | 6.4 | 10.44 | 2.54 | 8.79 | 88 | |
| 20260507060533 | 8 | 24 | 3.2 | 6.4 | 10.34 | 2.54 | 8.61 | 88 | |
| 20260507055541 | 8 | 342 | 3.2 | 8.0 | 10.41 | 2.54 | 8.43 | 89 | |
| 20260507054553 | 8 | 345 | 3.2 | 6.4 | 10.46 | 2.54 | 8.28 | 90 | |
| 20260507053545 | 8 | 347 | 3.2 | 6.4 | 10.46 | 2.54 | 8.10 | 91 | |
| 20260507052521 | 8 | 348 | 3.2 | 8.0 | 10.39 | 2.54 | 7.92 | 92 | |
| 20260507051526 | 8 | 350 | 1.6 | 6.4 | 10.39 | 2.54 | 7.75 | 92 | |
| 20260507050554 | 8 | 346 | 3.2 | 6.4 | 10.52 | 2.54 | 7.57 | 93 | |
| 20260507045525 | 8 | 343 | 3.2 | 4.8 | 10.44 | 2.54 | 7.39 | 93 | |
| 20260507044534 | 7 | 334 | 3.2 | 6.4 | 10.39 | 2.54 | 7.21 | 93 | |
| 20260507043526 | 8 | 336 | 1.6 | 6.4 | 10.44 | 2.54 | 7.06 | 93 | |
| 20260507042535 | 8 | 342 | 3.2 | 6.4 | 10.52 | 2.54 | 6.88 | 93 | |
| 20260507041547 | 8 | 349 | 1.6 | 4.8 | 10.54 | 2.54 | 6.71 | 93 | |
| 20260507040554 | 8 | 355 | 1.6 | 3.2 | 10.41 | 2.54 | 6.53 | 93 | |
| 20260507035525 | 8 | 332 | 1.6 | 3.2 | 10.41 | 2.54 | 6.35 | 93 | |
| 20260507034529 | 8 | 354 | 1.6 | 3.2 | 10.52 | 2.54 | 6.17 | 93 | |
| 20260507033544 | 8 | 353 | 1.6 | 3.2 | 10.52 | 2.54 | 5.99 | 93 | |
| 20260507032537 | 8 | 353 | 1.6 | 3.2 | 10.44 | 2.54 | 5.84 | 93 | |
| 20260507031525 | 8 | 323 | 0.0 | 3.2 | 10.41 | 2.54 | 5.64 | 93 | |
| 20260507030534 | 8 | 330 | 0.0 | 3.2 | 10.54 | 2.54 | 5.49 | 93 | |
| 20260507025525 | 8 | 337 | 1.6 | 3.2 | 10.67 | 2.54 | 5.31 | 94 | |
| 20260507024526 | 8 | 347 | 1.6 | 4.8 | 10.62 | 2.54 | 5.13 | 94 | |
| 20260507023526 | 8 | 341 | 1.6 | 4.8 | 10.64 | 2.54 | 4.95 | 94 | |
| 20260507022556 | 8 | 339 | 1.6 | 3.2 | 10.77 | 2.54 | 4.78 | 94 | |
| 20260507021529 | 8 | 351 | 1.6 | 3.2 | 10.79 | 2.54 | 4.60 | 94 | |
| 20260507020533 | 8 | 344 | 0.0 | 3.2 | 10.74 | 25.37 | 4.42 | 94 | |
| 20260507015526 | 8 | 357 | 0.0 | 3.2 | 10.69 | 25.37 | 4.24 | 94 | |
| 20260507014522 | 8 | 307 | 0.0 | 3.2 | 10.77 | 25.37 | 4.06 | 94 | |
| 20260507013528 | 8 | 0.0 | 1.6 | 10.77 | 25.37 | 3.89 | 94 | ||
| 20260507012537 | 8 | 0.0 | 0.0 | 10.67 | 25.35 | 3.71 | 94 | ||
| 20260507011520 | 8 | 0.0 | 1.6 | 10.67 | 25.35 | 3.53 | 94 | ||
| 20260507010533 | 8 | 0.0 | 0.0 | 10.74 | 25.35 | 3.35 | 94 | ||
| 20260507005546 | 8 | 0.0 | 0.0 | 10.74 | 25.35 | 3.17 | 94 | ||
| 20260507004532 | 8 | 0.0 | 0.0 | 10.62 | 25.32 | 3.00 | 94 | ||
| 20260507003545 | 8 | 0.0 | 0.0 | 10.57 | 25.32 | 2.82 | 94 | ||
| 20260507002553 | 8 | 303 | 1.6 | 3.2 | 10.67 | 25.32 | 2.64 | 94 | |
| 20260507001545 | 8 | 0.0 | 0.0 | 10.62 | 25.32 | 24.69 | 94 | ||
| 20260507000537 | 8 | 0.0 | 0.0 | 10.54 | 25.32 | 22.91 | 94 | ||
| 20260506235525 | 8 | 0.0 | 1.6 | 10.54 | 25.32 | 21.08 | 94 | ||
| 20260506234532 | 8 | 303 | 1.6 | 3.2 | 10.62 | 25.30 | 19.41 | 94 | |
| 20260506233526 | 8 | 320 | 0.0 | 1.6 | 10.64 | 25.30 | 17.63 | 94 | |
| 20260506232534 | 8 | 17 | 0.0 | 3.2 | 10.52 | 25.30 | 15.82 | 94 | |
| 20260506231526 | 8 | 328 | 1.6 | 3.2 | 10.46 | 25.30 | 14.07 | 94 | |
| 20260506230552 | 7 | 348 | 1.6 | 3.2 | 10.57 | 25.27 | 12.34 | 94 | |
| 20260506225525 | 7 | 340 | 1.6 | 3.2 | 10.54 | 25.27 | 10.54 | 94 | |
| 20260506224553 | 7 | 347 | 0.0 | 3.2 | 10.52 | 25.27 | 8.79 | 94 | |
| 20260506223531 | 7 | 332 | 1.6 | 3.2 | 10.41 | 25.27 | 6.99 | 94 | |
| 20260506222554 | 7 | 343 | 1.6 | 3.2 | 10.52 | 25.25 | 5.31 | 94 | |
| 20260506221526 | 7 | 349 | 1.6 | 3.2 | 10.62 | 25.25 | 3.58 | 94 | |
| 20260506220525 | 7 | 335 | 1.6 | 3.2 | 10.54 | 25.25 | 17.78 | 94 | |
| 20260506215525 | 7 | 341 | 3.2 | 4.8 | 10.57 | 25.25 | 25.25 | 93 | |
| 20260506214532 | 8 | 331 | 3.2 | 4.8 | 10.64 | 25.22 | 25.07 | 93 | |
| 20260506213526 | 8 | 341 | 3.2 | 6.4 | 10.69 | 25.22 | 24.89 | 92 | |
| 20260506212613 | 8 | 341 | 1.6 | 4.8 | 10.64 | 25.22 | 24.71 | 92 | |
| 20260506211525 | 8 | 325 | 1.6 | 4.8 | 10.64 | 25.22 | 24.54 | 91 | |
| 20260506210523 | 8 | 346 | 3.2 | 4.8 | 10.69 | 25.20 | 24.36 | 91 | |
| 20260506205550 | 8 | 342 | 3.2 | 4.8 | 10.69 | 25.20 | 24.18 | 90 | |
| 20260506204533 | 8 | 352 | 3.2 | 6.4 | 10.64 | 25.20 | 24.00 | 90 | |
| 20260506203519 | 9 | 348 | 1.6 | 4.8 | 10.64 | 25.20 | 23.83 | 90 | |
| 20260506202532 | 9 | 333 | 1.6 | 3.2 | 10.69 | 25.17 | 23.65 | 90 | |
| 20260506201526 | 9 | 360 | 1.6 | 3.2 | 10.69 | 25.17 | 23.47 | 90 | |
| 20260506200532 | 9 | 353 | 1.6 | 4.8 | 10.62 | 25.17 | 23.29 | 89 | |
| 20260506195524 | 9 | 360 | 1.6 | 4.8 | 10.62 | 25.15 | 23.11 | 89 | |
| 20260506194532 | 9 | 352 | 1.6 | 3.2 | 10.69 | 25.15 | 22.94 | 89 | |
| 20260506193528 | 9 | 356 | 1.6 | 4.8 | 10.74 | 25.15 | 22.76 | 88 | |
| 20260506192532 | 9 | 348 | 3.2 | 8.0 | 10.69 | 25.15 | 22.58 | 88 | |
| 20260506191526 | 9 | 353 | 3.2 | 6.4 | 10.67 | 25.12 | 22.40 | 88 | |
| 20260506190534 | 9 | 342 | 3.2 | 8.0 | 10.77 | 25.12 | 22.23 | 88 | |
| 20260506185524 | 9 | 359 | 3.2 | 8.0 | 10.77 | 25.12 | 22.05 | 88 | |
| 20260506184532 | 9 | 25 | 3.2 | 6.4 | 10.62 | 25.12 | 21.87 | 88 | |
| 20260506183529 | 9 | 37 | 3.2 | 8.0 | 10.57 | 25.10 | 21.69 | 88 | |
| 20260506182529 | 9 | 1 | 3.2 | 6.4 | 10.64 | 25.10 | 21.51 | 89 | |
| 20260506181525 | 9 | 350 | 3.2 | 6.4 | 10.64 | 25.10 | 21.34 | 88 | |
| 20260506180532 | 10 | 337 | 3.2 | 6.4 | 10.54 | 25.10 | 21.16 | 87 | |
| 20260506175527 | 10 | 356 | 4.8 | 11.3 | 10.44 | 25.07 | 20.96 | 85 | |
| 20260506174532 | 10 | 11 | 4.8 | 12.9 | 10.57 | 25.07 | 20.80 | 84 | |
| 20260506173542 | 10 | 5 | 4.8 | 11.3 | 10.64 | 25.07 | 20.62 | 82 | |
| 20260506172525 | 10 | 8 | 4.8 | 8.0 | 10.54 | 25.07 | 20.45 | 82 | |
| 20260506171526 | 10 | 359 | 6.4 | 14.5 | 10.57 | 25.07 | 20.27 | 81 | |
| 20260506170614 | 10 | 359 | 6.4 | 11.3 | 10.62 | 25.04 | 20.09 | 80 | |
| 20260506165529 | 11 | 6 | 4.8 | 11.3 | 10.64 | 25.04 | 19.91 | 79 | |
| 20260506164532 | 11 | 354 | 3.2 | 8.0 | 10.57 | 25.04 | 19.74 | 78 | |
| 20260506163524 | 11 | 348 | 6.4 | 16.1 | 10.46 | 25.04 | 19.56 | 77 | |
| 20260506162520 | 11 | 1 | 6.4 | 11.3 | 10.52 | 25.02 | 19.38 | 76 | |
| 20260506161526 | 11 | 355 | 4.8 | 11.3 | 10.46 | 25.02 | 19.20 | 75 | |
| 20260506160532 | 11 | 350 | 6.4 | 12.9 | 10.39 | 25.02 | 19.02 | 75 | |
| 20260506155526 | 11 | 341 | 6.4 | 11.3 | 10.44 | 25.02 | 18.85 | 74 | |
| 20260506154535 | 11 | 350 | 6.4 | 12.9 | 10.46 | 24.99 | 18.69 | 74 | |
| 20260506153546 | 11 | 348 | 6.4 | 14.5 | 10.54 | 24.99 | 18.52 | 75 | |
| 20260506152533 | 11 | 349 | 6.4 | 14.5 | 10.52 | 24.99 | 18.34 | 75 | |
| 20260506151524 | 11 | 347 | 6.4 | 11.3 | 10.52 | 24.99 | 18.16 | 76 | |
| 20260506150552 | 11 | 6 | 9.7 | 20.9 | 10.67 | 24.97 | 17.98 | 77 | |
| 20260506145546 | 11 | 12 | 4.8 | 8.0 | 10.64 | 24.97 | 17.81 | 77 | |
| 20260506144537 | 11 | 352 | 4.8 | 11.3 | 10.64 | 24.97 | 17.63 | 77 | |
| 20260506143527 | 11 | 358 | 6.4 | 12.9 | 10.64 | 24.97 | 17.45 | 78 | |
| 20260506142532 | 11 | 339 | 8.0 | 17.7 | 10.74 | 24.97 | 17.27 | 79 | |
| 20260506141529 | 11 | 355 | 6.4 | 14.5 | 10.74 | 24.94 | 17.09 | 78 | |
| 20260506140532 | 11 | 6 | 8.0 | 17.7 | 10.64 | 24.94 | 16.92 | 78 | |
| 20260506135524 | 11 | 11 | 9.7 | 17.7 | 10.67 | 24.94 | 16.74 | 79 | |
| 20260506134527 | 12 | 5 | 9.7 | 19.3 | 10.74 | 24.94 | 16.56 | 79 | |
| 20260506133524 | 12 | 351 | 8.0 | 16.1 | 10.74 | 24.92 | 16.38 | 79 | |
| 20260506132533 | 12 | 345 | 4.8 | 9.7 | 10.64 | 24.92 | 16.21 | 80 | |
| 20260506131525 | 11 | 347 | 6.4 | 11.3 | 10.69 | 24.92 | 16.03 | 81 | |
| 20260506130554 | 12 | 0 | 6.4 | 11.3 | 10.79 | 24.92 | 15.85 | 81 | |
| 20260506125526 | 11 | 32 | 4.8 | 11.3 | 10.82 | 24.92 | 15.67 | 82 | |
| 20260506124545 | 11 | 6 | 8.0 | 14.5 | 10.74 | 24.89 | 15.49 | 84 | |
| 20260506123524 | 11 | 358 | 8.0 | 16.1 | 10.74 | 24.89 | 15.32 | 85 | |
| 20260506122532 | 11 | 9 | 11.3 | 19.3 | 10.79 | 24.89 | 15.14 | 85 | |
| 20260506121525 | 12 | 357 | 6.4 | 16.1 | 10.74 | 24.89 | 14.96 | 87 | |
| 20260506120534 | 12 | 5 | 8.0 | 12.9 | 10.64 | 24.87 | 14.78 | 87 | |
| 20260506115547 | 11 | 19 | 8.0 | 16.1 | 10.57 | 24.87 | 14.61 | 87 | |
| 20260506114521 | 11 | 357 | 6.4 | 12.9 | 10.67 | 24.87 | 14.43 | 88 | |
| 20260506113524 | 11 | 40 | 6.4 | 11.3 | 10.62 | 24.84 | 14.25 | 89 | |
| 20260506112534 | 11 | 37 | 4.8 | 12.9 | 10.52 | 24.84 | 14.07 | 89 | |
| 20260506111546 | 11 | 6 | 8.0 | 16.1 | 10.54 | 24.84 | 13.89 | 90 | |
| 20260506110535 | 11 | 3 | 6.4 | 12.9 | 10.54 | 24.84 | 13.72 | 91 |